sensor_id;sensor_type;location;lat;lon;timestamp;P1;durP1;ratioP1;P2;durP2;ratioP2
44165;SDS011;30476;53.468;9.826;2022-12-18T00:02:17;8.27;;;5.20;;
44165;SDS011;30476;53.468;9.826;2022-12-18T00:04:43;7.17;;;5.40;;
44165;SDS011;30476;53.468;9.826;2022-12-18T00:07:09;6.90;;;6.20;;
44165;SDS011;30476;53.468;9.826;2022-12-18T00:09:34;5.60;;;4.90;;
44165;SDS011;30476;53.468;9.826;2022-12-18T00:12:00;5.50;;;5.00;;
44165;SDS011;30476;53.468;9.826;2022-12-18T00:14:26;8.50;;;5.97;;
44165;SDS011;30476;53.468;9.826;2022-12-18T00:16:52;7.30;;;5.90;;
44165;SDS011;30476;53.468;9.826;2022-12-18T00:19:18;7.83;;;5.47;;
44165;SDS011;30476;53.468;9.826;2022-12-18T00:21:44;8.33;;;5.70;;
44165;SDS011;30476;53.468;9.826;2022-12-18T00:24:10;6.50;;;5.83;;
44165;SDS011;30476;53.468;9.826;2022-12-18T00:26:37;6.80;;;5.73;;
44165;SDS011;30476;53.468;9.826;2022-12-18T00:29:09;7.73;;;5.63;;
44165;SDS011;30476;53.468;9.826;2022-12-18T00:31:36;8.83;;;5.17;;
44165;SDS011;30476;53.468;9.826;2022-12-18T00:34:02;8.63;;;6.60;;
44165;SDS011;30476;53.468;9.826;2022-12-18T00:36:30;5.87;;;5.20;;
44165;SDS011;30476;53.468;9.826;2022-12-18T00:39:00;5.50;;;5.00;;
44165;SDS011;30476;53.468;9.826;2022-12-18T00:41:28;6.60;;;5.20;;
44165;SDS011;30476;53.468;9.826;2022-12-18T00:44:13;7.37;;;5.03;;
44165;SDS011;30476;53.468;9.826;2022-12-18T00:46:41;9.20;;;5.67;;
44165;SDS011;30476;53.468;9.826;2022-12-18T00:49:08;11.60;;;5.23;;
44165;SDS011;30476;53.468;9.826;2022-12-18T00:51:34;7.30;;;4.97;;
44165;SDS011;30476;53.468;9.826;2022-12-18T00:54:00;7.23;;;5.37;;
44165;SDS011;30476;53.468;9.826;2022-12-18T00:56:26;8.27;;;6.30;;
44165;SDS011;30476;53.468;9.826;2022-12-18T00:58:52;8.67;;;6.10;;
44165;SDS011;30476;53.468;9.826;2022-12-18T01:01:18;7.40;;;5.37;;
44165;SDS011;30476;53.468;9.826;2022-12-18T01:03:44;9.73;;;5.37;;
44165;SDS011;30476;53.468;9.826;2022-12-18T01:06:12;7.73;;;5.17;;
44165;SDS011;30476;53.468;9.826;2022-12-18T01:08:39;6.70;;;5.90;;
44165;SDS011;30476;53.468;9.826;2022-12-18T01:11:09;7.03;;;4.87;;
44165;SDS011;30476;53.468;9.826;2022-12-18T01:13:37;10.23;;;5.80;;
44165;SDS011;30476;53.468;9.826;2022-12-18T01:16:03;5.90;;;5.37;;
44165;SDS011;30476;53.468;9.826;2022-12-18T01:18:29;6.93;;;5.17;;
44165;SDS011;30476;53.468;9.826;2022-12-18T01:20:55;7.10;;;5.03;;
44165;SDS011;30476;53.468;9.826;2022-12-18T01:23:21;4.30;;;3.90;;
44165;SDS011;30476;53.468;9.826;2022-12-18T01:25:46;8.03;;;5.50;;
44165;SDS011;30476;53.468;9.826;2022-12-18T01:28:12;6.53;;;4.93;;
44165;SDS011;30476;53.468;9.826;2022-12-18T01:30:38;4.03;;;3.63;;
44165;SDS011;30476;53.468;9.826;2022-12-18T01:33:04;5.73;;;4.63;;
44165;SDS011;30476;53.468;9.826;2022-12-18T01:35:30;6.00;;;5.00;;
44165;SDS011;30476;53.468;9.826;2022-12-18T01:37:56;4.43;;;4.03;;
44165;SDS011;30476;53.468;9.826;2022-12-18T01:40:22;5.33;;;4.23;;
44165;SDS011;30476;53.468;9.826;2022-12-18T01:42:52;5.67;;;4.40;;
44165;SDS011;30476;53.468;9.826;2022-12-18T01:47:53;5.20;;;4.67;;
44165;SDS011;30476;53.468;9.826;2022-12-18T01:55:43;7.27;;;4.83;;
44165;SDS011;30476;53.468;9.826;2022-12-18T01:58:13;4.40;;;4.00;;
44165;SDS011;30476;53.468;9.826;2022-12-18T02:00:40;4.20;;;3.80;;
44165;SDS011;30476;53.468;9.826;2022-12-18T02:03:06;4.40;;;3.83;;
44165;SDS011;30476;53.468;9.826;2022-12-18T02:08:27;6.27;;;4.40;;
44165;SDS011;30476;53.468;9.826;2022-12-18T02:13:38;5.27;;;4.53;;
44165;SDS011;30476;53.468;9.826;2022-12-18T02:27:48;6.07;;;4.30;;
44165;SDS011;30476;53.468;9.826;2022-12-18T02:30:16;6.57;;;4.30;;
44165;SDS011;30476;53.468;9.826;2022-12-18T02:32:47;6.40;;;3.90;;
44165;SDS011;30476;53.468;9.826;2022-12-18T02:35:17;4.47;;;4.03;;
44165;SDS011;30476;53.468;9.826;2022-12-18T02:37:47;5.50;;;4.67;;
44165;SDS011;30476;53.468;9.826;2022-12-18T02:40:13;5.27;;;4.57;;
44165;SDS011;30476;53.468;9.826;2022-12-18T02:42:41;4.53;;;4.10;;
44165;SDS011;30476;53.468;9.826;2022-12-18T02:45:07;7.50;;;4.70;;
44165;SDS011;30476;53.468;9.826;2022-12-18T02:47:34;5.13;;;3.80;;
44165;SDS011;30476;53.468;9.826;2022-12-18T02:55:45;4.70;;;4.30;;
44165;SDS011;30476;53.468;9.826;2022-12-18T02:58:20;5.43;;;3.83;;
44165;SDS011;30476;53.468;9.826;2022-12-18T03:01:13;6.40;;;4.17;;
44165;SDS011;30476;53.468;9.826;2022-12-18T03:03:55;7.60;;;4.67;;
44165;SDS011;30476;53.468;9.826;2022-12-18T03:06:35;6.73;;;3.60;;
44165;SDS011;30476;53.468;9.826;2022-12-18T03:09:09;6.07;;;4.30;;
44165;SDS011;30476;53.468;9.826;2022-12-18T03:11:41;5.73;;;3.70;;
44165;SDS011;30476;53.468;9.826;2022-12-18T03:14:30;4.17;;;3.43;;
44165;SDS011;30476;53.468;9.826;2022-12-18T03:17:00;5.20;;;3.93;;
44165;SDS011;30476;53.468;9.826;2022-12-18T03:19:28;4.10;;;3.70;;
44165;SDS011;30476;53.468;9.826;2022-12-18T03:21:56;4.77;;;3.57;;
44165;SDS011;30476;53.468;9.826;2022-12-18T03:24:26;6.90;;;5.03;;
44165;SDS011;30476;53.468;9.826;2022-12-18T03:26:56;5.97;;;3.80;;
44165;SDS011;30476;53.468;9.826;2022-12-18T03:29:48;6.03;;;5.37;;
44165;SDS011;30476;53.468;9.826;2022-12-18T03:32:20;7.87;;;5.70;;
44165;SDS011;30476;53.468;9.826;2022-12-18T03:35:03;7.03;;;6.27;;
44165;SDS011;30476;53.468;9.826;2022-12-18T03:37:30;8.50;;;7.20;;
44165;SDS011;30476;53.468;9.826;2022-12-18T03:39:57;8.43;;;7.03;;
44165;SDS011;30476;53.468;9.826;2022-12-18T03:42:27;9.63;;;6.90;;
44165;SDS011;30476;53.468;9.826;2022-12-18T03:45:00;9.23;;;7.10;;
44165;SDS011;30476;53.468;9.826;2022-12-18T03:47:49;7.30;;;6.50;;
44165;SDS011;30476;53.468;9.826;2022-12-18T03:50:29;10.00;;;7.27;;
44165;SDS011;30476;53.468;9.826;2022-12-18T03:52:58;8.87;;;6.33;;
44165;SDS011;30476;53.468;9.826;2022-12-18T03:55:32;6.53;;;5.97;;
44165;SDS011;30476;53.468;9.826;2022-12-18T03:58:00;9.43;;;6.23;;
44165;SDS011;30476;53.468;9.826;2022-12-18T04:00:27;7.80;;;6.77;;
44165;SDS011;30476;53.468;9.826;2022-12-18T04:02:55;7.40;;;6.30;;
44165;SDS011;30476;53.468;9.826;2022-12-18T04:05:22;8.83;;;6.30;;
44165;SDS011;30476;53.468;9.826;2022-12-18T04:07:50;10.20;;;6.27;;
44165;SDS011;30476;53.468;9.826;2022-12-18T04:10:19;5.50;;;5.00;;
44165;SDS011;30476;53.468;9.826;2022-12-18T04:12:45;9.17;;;5.73;;
44165;SDS011;30476;53.468;9.826;2022-12-18T04:15:11;6.10;;;4.70;;
44165;SDS011;30476;53.468;9.826;2022-12-18T04:17:38;7.00;;;4.87;;
44165;SDS011;30476;53.468;9.826;2022-12-18T04:20:08;4.97;;;4.57;;
44165;SDS011;30476;53.468;9.826;2022-12-18T04:22:34;4.63;;;4.10;;
44165;SDS011;30476;53.468;9.826;2022-12-18T04:25:00;5.70;;;4.70;;
44165;SDS011;30476;53.468;9.826;2022-12-18T04:27:26;5.00;;;4.53;;
44165;SDS011;30476;53.468;9.826;2022-12-18T04:29:52;4.30;;;3.30;;
44165;SDS011;30476;53.468;9.826;2022-12-18T04:32:17;5.47;;;3.10;;
44165;SDS011;30476;53.468;9.826;2022-12-18T04:34:43;3.43;;;3.13;;
44165;SDS011;30476;53.468;9.826;2022-12-18T04:37:09;4.17;;;3.40;;
44165;SDS011;30476;53.468;9.826;2022-12-18T04:39:35;5.30;;;3.40;;
44165;SDS011;30476;53.468;9.826;2022-12-18T04:42:01;7.30;;;4.73;;
44165;SDS011;30476;53.468;9.826;2022-12-18T04:44:26;6.17;;;5.07;;
44165;SDS011;30476;53.468;9.826;2022-12-18T04:46:52;6.30;;;4.50;;
44165;SDS011;30476;53.468;9.826;2022-12-18T04:49:18;6.20;;;4.77;;
44165;SDS011;30476;53.468;9.826;2022-12-18T04:51:44;4.67;;;3.63;;
44165;SDS011;30476;53.468;9.826;2022-12-18T04:54:09;4.80;;;3.63;;
44165;SDS011;30476;53.468;9.826;2022-12-18T04:56:35;6.80;;;4.30;;
44165;SDS011;30476;53.468;9.826;2022-12-18T04:59:01;5.20;;;4.67;;
44165;SDS011;30476;53.468;9.826;2022-12-18T05:01:27;5.37;;;4.80;;
44165;SDS011;30476;53.468;9.826;2022-12-18T05:03:53;6.33;;;4.80;;
44165;SDS011;30476;53.468;9.826;2022-12-18T05:06:18;5.07;;;3.60;;
44165;SDS011;30476;53.468;9.826;2022-12-18T05:08:44;6.30;;;4.03;;
44165;SDS011;30476;53.468;9.826;2022-12-18T05:11:11;3.90;;;3.60;;
44165;SDS011;30476;53.468;9.826;2022-12-18T05:13:41;6.77;;;4.17;;
44165;SDS011;30476;53.468;9.826;2022-12-18T05:16:08;7.10;;;3.87;;
44165;SDS011;30476;53.468;9.826;2022-12-18T05:18:34;10.27;;;4.17;;
44165;SDS011;30476;53.468;9.826;2022-12-18T05:21:00;4.93;;;4.23;;
44165;SDS011;30476;53.468;9.826;2022-12-18T05:23:26;6.50;;;4.37;;
44165;SDS011;30476;53.468;9.826;2022-12-18T05:25:53;5.60;;;5.10;;
44165;SDS011;30476;53.468;9.826;2022-12-18T05:28:24;5.23;;;4.23;;
44165;SDS011;30476;53.468;9.826;2022-12-18T05:30:52;4.97;;;4.40;;
44165;SDS011;30476;53.468;9.826;2022-12-18T05:33:19;7.27;;;5.33;;
44165;SDS011;30476;53.468;9.826;2022-12-18T05:35:52;5.60;;;4.60;;
44165;SDS011;30476;53.468;9.826;2022-12-18T05:38:22;6.73;;;4.73;;
44165;SDS011;30476;53.468;9.826;2022-12-18T05:40:50;6.33;;;4.70;;
44165;SDS011;30476;53.468;9.826;2022-12-18T05:43:16;6.63;;;5.40;;
44165;SDS011;30476;53.468;9.826;2022-12-18T05:45:43;6.23;;;5.63;;
44165;SDS011;30476;53.468;9.826;2022-12-18T05:48:12;8.43;;;4.77;;
44165;SDS011;30476;53.468;9.826;2022-12-18T05:50:38;7.20;;;5.03;;
44165;SDS011;30476;53.468;9.826;2022-12-18T05:53:06;6.23;;;5.03;;
44165;SDS011;30476;53.468;9.826;2022-12-18T05:55:36;8.00;;;5.73;;
44165;SDS011;30476;53.468;9.826;2022-12-18T05:58:03;6.37;;;5.03;;
44165;SDS011;30476;53.468;9.826;2022-12-18T06:00:31;5.53;;;4.90;;
44165;SDS011;30476;53.468;9.826;2022-12-18T06:03:00;11.33;;;10.30;;
44165;SDS011;30476;53.468;9.826;2022-12-18T06:05:26;7.83;;;6.07;;
44165;SDS011;30476;53.468;9.826;2022-12-18T06:07:52;8.40;;;6.13;;
44165;SDS011;30476;53.468;9.826;2022-12-18T06:10:18;15.60;;;13.17;;
44165;SDS011;30476;53.468;9.826;2022-12-18T06:12:43;7.20;;;5.70;;
44165;SDS011;30476;53.468;9.826;2022-12-18T06:15:09;6.90;;;5.90;;
44165;SDS011;30476;53.468;9.826;2022-12-18T06:17:35;5.60;;;4.43;;
44165;SDS011;30476;53.468;9.826;2022-12-18T06:20:02;5.03;;;3.53;;
44165;SDS011;30476;53.468;9.826;2022-12-18T06:22:32;3.73;;;3.43;;
44165;SDS011;30476;53.468;9.826;2022-12-18T06:24:58;5.50;;;4.13;;
44165;SDS011;30476;53.468;9.826;2022-12-18T06:27:24;5.00;;;3.43;;
44165;SDS011;30476;53.468;9.826;2022-12-18T06:29:50;6.97;;;4.50;;
44165;SDS011;30476;53.468;9.826;2022-12-18T06:32:16;6.77;;;3.50;;
44165;SDS011;30476;53.468;9.826;2022-12-18T06:34:42;5.50;;;3.63;;
44165;SDS011;30476;53.468;9.826;2022-12-18T06:37:08;4.57;;;4.00;;
44165;SDS011;30476;53.468;9.826;2022-12-18T06:39:33;4.77;;;3.00;;
44165;SDS011;30476;53.468;9.826;2022-12-18T06:41:59;4.47;;;4.07;;
44165;SDS011;30476;53.468;9.826;2022-12-18T06:44:25;4.40;;;3.50;;
44165;SDS011;30476;53.468;9.826;2022-12-18T06:46:50;4.93;;;3.30;;
44165;SDS011;30476;53.468;9.826;2022-12-18T06:49:16;5.00;;;3.60;;
44165;SDS011;30476;53.468;9.826;2022-12-18T06:51:42;3.77;;;2.63;;
44165;SDS011;30476;53.468;9.826;2022-12-18T06:54:08;5.27;;;3.60;;
44165;SDS011;30476;53.468;9.826;2022-12-18T06:56:34;3.60;;;2.90;;
44165;SDS011;30476;53.468;9.826;2022-12-18T06:58:59;3.03;;;2.70;;
44165;SDS011;30476;53.468;9.826;2022-12-18T07:01:25;4.37;;;3.77;;
44165;SDS011;30476;53.468;9.826;2022-12-18T07:03:52;4.90;;;3.90;;
44165;SDS011;30476;53.468;9.826;2022-12-18T07:06:20;2.93;;;2.73;;
44165;SDS011;30476;53.468;9.826;2022-12-18T07:08:47;4.20;;;3.70;;
44165;SDS011;30476;53.468;9.826;2022-12-18T07:11:14;4.43;;;3.50;;
44165;SDS011;30476;53.468;9.826;2022-12-18T07:13:41;7.03;;;3.87;;
44165;SDS011;30476;53.468;9.826;2022-12-18T07:16:12;5.07;;;3.90;;
44165;SDS011;30476;53.468;9.826;2022-12-18T07:18:40;5.97;;;4.27;;
44165;SDS011;30476;53.468;9.826;2022-12-18T07:21:06;7.00;;;5.37;;
44165;SDS011;30476;53.468;9.826;2022-12-18T07:23:34;4.73;;;4.33;;
44165;SDS011;30476;53.468;9.826;2022-12-18T07:26:04;6.67;;;4.23;;
44165;SDS011;30476;53.468;9.826;2022-12-18T07:28:32;9.30;;;4.53;;
44165;SDS011;30476;53.468;9.826;2022-12-18T07:31:02;5.17;;;4.10;;
44165;SDS011;30476;53.468;9.826;2022-12-18T07:33:32;9.33;;;4.93;;
44165;SDS011;30476;53.468;9.826;2022-12-18T07:35:59;6.17;;;4.80;;
44165;SDS011;30476;53.468;9.826;2022-12-18T07:38:25;6.60;;;5.10;;
44165;SDS011;30476;53.468;9.826;2022-12-18T07:40:51;9.93;;;5.50;;
44165;SDS011;30476;53.468;9.826;2022-12-18T07:43:17;8.20;;;5.60;;
44165;SDS011;30476;53.468;9.826;2022-12-18T07:45:43;7.33;;;5.67;;
44165;SDS011;30476;53.468;9.826;2022-12-18T07:48:09;6.80;;;5.13;;
44165;SDS011;30476;53.468;9.826;2022-12-18T07:50:36;7.57;;;5.90;;
44165;SDS011;30476;53.468;9.826;2022-12-18T07:53:02;8.40;;;4.80;;
44165;SDS011;30476;53.468;9.826;2022-12-18T07:55:30;7.57;;;6.13;;
44165;SDS011;30476;53.468;9.826;2022-12-18T07:57:59;6.07;;;5.00;;
44165;SDS011;30476;53.468;9.826;2022-12-18T08:00:27;7.80;;;4.77;;
44165;SDS011;30476;53.468;9.826;2022-12-18T08:02:52;7.13;;;5.03;;
44165;SDS011;30476;53.468;9.826;2022-12-18T08:05:18;6.77;;;5.03;;
44165;SDS011;30476;53.468;9.826;2022-12-18T08:07:46;7.20;;;4.70;;
44165;SDS011;30476;53.468;9.826;2022-12-18T08:10:11;5.00;;;4.30;;
44165;SDS011;30476;53.468;9.826;2022-12-18T08:12:37;6.30;;;4.30;;
44165;SDS011;30476;53.468;9.826;2022-12-18T08:15:03;5.00;;;4.40;;
44165;SDS011;30476;53.468;9.826;2022-12-18T08:17:29;5.67;;;4.20;;
44165;SDS011;30476;53.468;9.826;2022-12-18T08:19:55;4.37;;;4.07;;
44165;SDS011;30476;53.468;9.826;2022-12-18T08:22:21;5.23;;;4.47;;
44165;SDS011;30476;53.468;9.826;2022-12-18T08:24:47;4.50;;;4.03;;
44165;SDS011;30476;53.468;9.826;2022-12-18T08:27:12;5.67;;;4.27;;
44165;SDS011;30476;53.468;9.826;2022-12-18T08:29:38;8.37;;;4.87;;
44165;SDS011;30476;53.468;9.826;2022-12-18T08:32:04;6.07;;;4.40;;
44165;SDS011;30476;53.468;9.826;2022-12-18T08:34:30;4.83;;;3.90;;
44165;SDS011;30476;53.468;9.826;2022-12-18T08:36:55;7.30;;;4.60;;
44165;SDS011;30476;53.468;9.826;2022-12-18T08:39:21;5.30;;;4.50;;
44165;SDS011;30476;53.468;9.826;2022-12-18T08:41:47;4.40;;;4.00;;
44165;SDS011;30476;53.468;9.826;2022-12-18T08:44:33;7.70;;;4.87;;
44165;SDS011;30476;53.468;9.826;2022-12-18T08:47:05;6.70;;;4.70;;
44165;SDS011;30476;53.468;9.826;2022-12-18T08:49:32;6.30;;;4.77;;
44165;SDS011;30476;53.468;9.826;2022-12-18T08:51:58;5.57;;;5.13;;
44165;SDS011;30476;53.468;9.826;2022-12-18T08:54:24;4.93;;;4.27;;
44165;SDS011;30476;53.468;9.826;2022-12-18T08:56:50;5.00;;;3.80;;
44165;SDS011;30476;53.468;9.826;2022-12-18T08:59:16;5.80;;;3.90;;
44165;SDS011;30476;53.468;9.826;2022-12-18T09:01:43;5.73;;;4.03;;
44165;SDS011;30476;53.468;9.826;2022-12-18T09:04:09;5.20;;;3.63;;
44165;SDS011;30476;53.468;9.826;2022-12-18T09:06:35;4.23;;;3.83;;
44165;SDS011;30476;53.468;9.826;2022-12-18T09:09:02;4.53;;;3.70;;
44165;SDS011;30476;53.468;9.826;2022-12-18T09:11:29;5.60;;;3.90;;
44165;SDS011;30476;53.468;9.826;2022-12-18T09:13:55;4.60;;;4.20;;
44165;SDS011;30476;53.468;9.826;2022-12-18T09:16:22;4.10;;;3.80;;
44165;SDS011;30476;53.468;9.826;2022-12-18T09:18:49;4.03;;;3.60;;
44165;SDS011;30476;53.468;9.826;2022-12-18T09:21:16;7.43;;;4.70;;
44165;SDS011;30476;53.468;9.826;2022-12-18T09:23:43;5.47;;;4.17;;
44165;SDS011;30476;53.468;9.826;2022-12-18T09:26:14;6.83;;;4.90;;
44165;SDS011;30476;53.468;9.826;2022-12-18T09:28:39;5.63;;;4.33;;
44165;SDS011;30476;53.468;9.826;2022-12-18T09:31:06;4.50;;;4.20;;
44165;SDS011;30476;53.468;9.826;2022-12-18T09:33:36;5.57;;;4.20;;
44165;SDS011;30476;53.468;9.826;2022-12-18T09:36:03;6.80;;;5.13;;
44165;SDS011;30476;53.468;9.826;2022-12-18T09:38:30;6.70;;;4.40;;
44165;SDS011;30476;53.468;9.826;2022-12-18T09:41:00;5.30;;;4.60;;
44165;SDS011;30476;53.468;9.826;2022-12-18T09:43:49;4.80;;;4.30;;
44165;SDS011;30476;53.468;9.826;2022-12-18T09:46:26;5.10;;;4.50;;
44165;SDS011;30476;53.468;9.826;2022-12-18T09:48:59;5.87;;;3.90;;
44165;SDS011;30476;53.468;9.826;2022-12-18T09:51:30;5.60;;;3.90;;
44165;SDS011;30476;53.468;9.826;2022-12-18T09:54:06;6.53;;;4.30;;
44165;SDS011;30476;53.468;9.826;2022-12-18T09:56:38;5.47;;;3.77;;
44165;SDS011;30476;53.468;9.826;2022-12-18T09:59:05;4.20;;;3.70;;
44165;SDS011;30476;53.468;9.826;2022-12-18T10:01:40;6.90;;;3.57;;
44165;SDS011;30476;53.468;9.826;2022-12-18T10:04:08;6.87;;;4.23;;
44165;SDS011;30476;53.468;9.826;2022-12-18T10:09:28;5.30;;;3.60;;
44165;SDS011;30476;53.468;9.826;2022-12-18T10:12:13;4.00;;;3.50;;
44165;SDS011;30476;53.468;9.826;2022-12-18T10:15:06;4.83;;;3.70;;
44165;SDS011;30476;53.468;9.826;2022-12-18T10:17:40;4.57;;;3.60;;
44165;SDS011;30476;53.468;9.826;2022-12-18T10:20:35;5.13;;;3.37;;
44165;SDS011;30476;53.468;9.826;2022-12-18T10:26:07;4.10;;;3.27;;
44165;SDS011;30476;53.468;9.826;2022-12-18T10:28:36;5.07;;;3.87;;
44165;SDS011;30476;53.468;9.826;2022-12-18T10:33:43;6.07;;;4.47;;
44165;SDS011;30476;53.468;9.826;2022-12-18T10:36:09;4.03;;;3.60;;
44165;SDS011;30476;53.468;9.826;2022-12-18T10:38:35;4.37;;;4.00;;
44165;SDS011;30476;53.468;9.826;2022-12-18T10:41:06;5.30;;;3.93;;
44165;SDS011;30476;53.468;9.826;2022-12-18T10:46:35;3.53;;;3.23;;
44165;SDS011;30476;53.468;9.826;2022-12-18T10:49:01;3.53;;;3.23;;
44165;SDS011;30476;53.468;9.826;2022-12-18T10:51:31;4.77;;;3.87;;
44165;SDS011;30476;53.468;9.826;2022-12-18T10:54:03;8.20;;;3.70;;
44165;SDS011;30476;53.468;9.826;2022-12-18T10:56:33;6.23;;;3.63;;
44165;SDS011;30476;53.468;9.826;2022-12-18T10:59:02;4.07;;;3.77;;
44165;SDS011;30476;53.468;9.826;2022-12-18T11:01:49;7.60;;;4.03;;
44165;SDS011;30476;53.468;9.826;2022-12-18T11:04:24;6.80;;;4.00;;
44165;SDS011;30476;53.468;9.826;2022-12-18T11:06:58;5.17;;;3.30;;
44165;SDS011;30476;53.468;9.826;2022-12-18T11:09:30;5.53;;;3.63;;
44165;SDS011;30476;53.468;9.826;2022-12-18T11:11:58;4.03;;;3.67;;
44165;SDS011;30476;53.468;9.826;2022-12-18T11:14:27;6.37;;;4.07;;
44165;SDS011;30476;53.468;9.826;2022-12-18T11:16:55;4.63;;;4.17;;
44165;SDS011;30476;53.468;9.826;2022-12-18T11:19:33;4.30;;;3.90;;
44165;SDS011;30476;53.468;9.826;2022-12-18T11:22:01;4.43;;;4.03;;
44165;SDS011;30476;53.468;9.826;2022-12-18T11:24:49;5.77;;;4.20;;
44165;SDS011;30476;53.468;9.826;2022-12-18T11:27:23;6.60;;;5.00;;
44165;SDS011;30476;53.468;9.826;2022-12-18T11:29:50;6.00;;;4.80;;
44165;SDS011;30476;53.468;9.826;2022-12-18T11:32:38;4.20;;;3.80;;
44165;SDS011;30476;53.468;9.826;2022-12-18T11:35:17;4.73;;;3.60;;
44165;SDS011;30476;53.468;9.826;2022-12-18T11:40:45;4.20;;;3.70;;
44165;SDS011;30476;53.468;9.826;2022-12-18T11:43:18;3.87;;;3.50;;
44165;SDS011;30476;53.468;9.826;2022-12-18T11:45:58;5.03;;;4.13;;
44165;SDS011;30476;53.468;9.826;2022-12-18T11:48:32;5.73;;;4.03;;
44165;SDS011;30476;53.468;9.826;2022-12-18T11:51:04;7.97;;;3.90;;
44165;SDS011;30476;53.468;9.826;2022-12-18T11:53:45;4.80;;;4.40;;
44165;SDS011;30476;53.468;9.826;2022-12-18T12:01:48;4.13;;;3.10;;
44165;SDS011;30476;53.468;9.826;2022-12-18T12:07:22;4.20;;;3.53;;
44165;SDS011;30476;53.468;9.826;2022-12-18T12:13:30;7.03;;;4.03;;
44165;SDS011;30476;53.468;9.826;2022-12-18T12:18:50;6.40;;;5.43;;
44165;SDS011;30476;53.468;9.826;2022-12-18T12:21:47;5.20;;;4.70;;
44165;SDS011;30476;53.468;9.826;2022-12-18T12:30:18;6.87;;;5.13;;
44165;SDS011;30476;53.468;9.826;2022-12-18T12:35:49;6.53;;;5.07;;
44165;SDS011;30476;53.468;9.826;2022-12-18T12:38:24;6.13;;;4.70;;
44165;SDS011;30476;53.468;9.826;2022-12-18T12:41:05;7.93;;;5.87;;
44165;SDS011;30476;53.468;9.826;2022-12-18T12:43:54;4.70;;;4.30;;
44165;SDS011;30476;53.468;9.826;2022-12-18T12:46:23;4.27;;;3.77;;
44165;SDS011;30476;53.468;9.826;2022-12-18T12:51:19;4.83;;;4.40;;
44165;SDS011;30476;53.468;9.826;2022-12-18T12:53:46;4.07;;;3.47;;
44165;SDS011;30476;53.468;9.826;2022-12-18T12:56:13;10.17;;;3.97;;
44165;SDS011;30476;53.468;9.826;2022-12-18T12:58:45;3.80;;;3.50;;
44165;SDS011;30476;53.468;9.826;2022-12-18T13:09:30;5.10;;;2.83;;
44165;SDS011;30476;53.468;9.826;2022-12-18T13:12:01;5.93;;;3.80;;
44165;SDS011;30476;53.468;9.826;2022-12-18T13:14:47;3.30;;;3.00;;
44165;SDS011;30476;53.468;9.826;2022-12-18T13:17:17;3.53;;;3.10;;
44165;SDS011;30476;53.468;9.826;2022-12-18T13:20:04;4.97;;;4.10;;
44165;SDS011;30476;53.468;9.826;2022-12-18T13:22:46;3.57;;;2.90;;
44165;SDS011;30476;53.468;9.826;2022-12-18T13:25:29;2.90;;;2.70;;
44165;SDS011;30476;53.468;9.826;2022-12-18T13:28:10;4.17;;;3.87;;
44165;SDS011;30476;53.468;9.826;2022-12-18T13:30:45;3.60;;;3.23;;
44165;SDS011;30476;53.468;9.826;2022-12-18T13:41:00;4.20;;;3.80;;
44165;SDS011;30476;53.468;9.826;2022-12-18T13:48:55;6.93;;;5.50;;
44165;SDS011;30476;53.468;9.826;2022-12-18T13:51:27;6.30;;;5.70;;
44165;SDS011;30476;53.468;9.826;2022-12-18T13:54:00;8.83;;;6.03;;
44165;SDS011;30476;53.468;9.826;2022-12-18T13:56:29;6.07;;;5.47;;
44165;SDS011;30476;53.468;9.826;2022-12-18T13:59:14;6.87;;;6.20;;
44165;SDS011;30476;53.468;9.826;2022-12-18T14:01:59;7.83;;;7.03;;
44165;SDS011;30476;53.468;9.826;2022-12-18T14:09:42;7.60;;;6.80;;
44165;SDS011;30476;53.468;9.826;2022-12-18T14:12:30;11.37;;;8.00;;
44165;SDS011;30476;53.468;9.826;2022-12-18T14:18:02;17.30;;;10.80;;
44165;SDS011;30476;53.468;9.826;2022-12-18T14:20:44;15.07;;;10.70;;
44165;SDS011;30476;53.468;9.826;2022-12-18T14:25:54;12.83;;;9.43;;
44165;SDS011;30476;53.468;9.826;2022-12-18T14:28:20;13.10;;;9.10;;
44165;SDS011;30476;53.468;9.826;2022-12-18T14:30:47;15.67;;;8.90;;
44165;SDS011;30476;53.468;9.826;2022-12-18T14:33:20;12.63;;;8.03;;
44165;SDS011;30476;53.468;9.826;2022-12-18T14:35:59;12.03;;;8.50;;
44165;SDS011;30476;53.468;9.826;2022-12-18T14:38:36;13.47;;;8.60;;
44165;SDS011;30476;53.468;9.826;2022-12-18T14:41:04;14.50;;;10.10;;
44165;SDS011;30476;53.468;9.826;2022-12-18T14:43:35;13.10;;;9.57;;
44165;SDS011;30476;53.468;9.826;2022-12-18T14:46:03;14.40;;;9.17;;
44165;SDS011;30476;53.468;9.826;2022-12-18T14:48:41;12.80;;;9.87;;
44165;SDS011;30476;53.468;9.826;2022-12-18T14:51:17;18.63;;;10.13;;
44165;SDS011;30476;53.468;9.826;2022-12-18T14:53:45;17.00;;;10.30;;
44165;SDS011;30476;53.468;9.826;2022-12-18T14:56:14;15.90;;;9.93;;
44165;SDS011;30476;53.468;9.826;2022-12-18T14:58:55;15.90;;;11.23;;
44165;SDS011;30476;53.468;9.826;2022-12-18T15:04:03;17.43;;;10.70;;
44165;SDS011;30476;53.468;9.826;2022-12-18T15:06:34;15.77;;;10.53;;
44165;SDS011;30476;53.468;9.826;2022-12-18T15:09:23;20.90;;;12.13;;
44165;SDS011;30476;53.468;9.826;2022-12-18T15:11:49;21.43;;;14.50;;
44165;SDS011;30476;53.468;9.826;2022-12-18T15:17:12;24.00;;;14.03;;
44165;SDS011;30476;53.468;9.826;2022-12-18T15:19:42;15.20;;;11.13;;
44165;SDS011;30476;53.468;9.826;2022-12-18T15:24:52;25.70;;;13.70;;
44165;SDS011;30476;53.468;9.826;2022-12-18T15:27:20;24.00;;;13.17;;
44165;SDS011;30476;53.468;9.826;2022-12-18T15:30:02;24.77;;;13.73;;
44165;SDS011;30476;53.468;9.826;2022-12-18T15:32:34;24.13;;;13.90;;
44165;SDS011;30476;53.468;9.826;2022-12-18T15:37:36;25.20;;;15.73;;
44165;SDS011;30476;53.468;9.826;2022-12-18T15:40:03;22.00;;;14.33;;
44165;SDS011;30476;53.468;9.826;2022-12-18T15:42:29;24.33;;;13.80;;
44165;SDS011;30476;53.468;9.826;2022-12-18T15:45:14;25.80;;;15.70;;
44165;SDS011;30476;53.468;9.826;2022-12-18T15:47:41;23.23;;;14.97;;
44165;SDS011;30476;53.468;9.826;2022-12-18T15:50:07;21.87;;;15.23;;
44165;SDS011;30476;53.468;9.826;2022-12-18T15:52:37;22.73;;;14.90;;
44165;SDS011;30476;53.468;9.826;2022-12-18T15:55:13;26.43;;;15.20;;
44165;SDS011;30476;53.468;9.826;2022-12-18T15:57:59;27.57;;;15.57;;
44165;SDS011;30476;53.468;9.826;2022-12-18T16:00:25;22.87;;;14.47;;
44165;SDS011;30476;53.468;9.826;2022-12-18T16:02:51;21.10;;;14.50;;
44165;SDS011;30476;53.468;9.826;2022-12-18T16:05:18;25.73;;;15.37;;
44165;SDS011;30476;53.468;9.826;2022-12-18T16:07:45;24.73;;;14.27;;
44165;SDS011;30476;53.468;9.826;2022-12-18T16:10:12;24.03;;;14.80;;
44165;SDS011;30476;53.468;9.826;2022-12-18T16:12:38;23.37;;;14.80;;
44165;SDS011;30476;53.468;9.826;2022-12-18T16:15:04;22.47;;;15.90;;
44165;SDS011;30476;53.468;9.826;2022-12-18T16:17:31;24.43;;;13.77;;
44165;SDS011;30476;53.468;9.826;2022-12-18T16:19:57;24.27;;;15.07;;
44165;SDS011;30476;53.468;9.826;2022-12-18T16:22:24;24.20;;;14.73;;
44165;SDS011;30476;53.468;9.826;2022-12-18T16:24:53;21.07;;;14.50;;
44165;SDS011;30476;53.468;9.826;2022-12-18T16:27:20;25.70;;;14.33;;
44165;SDS011;30476;53.468;9.826;2022-12-18T16:29:47;26.40;;;16.30;;
44165;SDS011;30476;53.468;9.826;2022-12-18T16:32:18;25.63;;;16.43;;
44165;SDS011;30476;53.468;9.826;2022-12-18T16:34:45;29.40;;;17.40;;
44165;SDS011;30476;53.468;9.826;2022-12-18T16:37:12;30.10;;;15.60;;
44165;SDS011;30476;53.468;9.826;2022-12-18T16:39:39;25.10;;;15.17;;
44165;SDS011;30476;53.468;9.826;2022-12-18T16:42:10;28.47;;;16.60;;
44165;SDS011;30476;53.468;9.826;2022-12-18T16:44:39;31.33;;;17.27;;
44165;SDS011;30476;53.468;9.826;2022-12-18T16:47:06;34.03;;;16.93;;
44165;SDS011;30476;53.468;9.826;2022-12-18T16:49:32;24.57;;;16.63;;
44165;SDS011;30476;53.468;9.826;2022-12-18T16:51:57;26.87;;;18.67;;
44165;SDS011;30476;53.468;9.826;2022-12-18T16:54:23;24.93;;;16.10;;